sensor_id;sensor_type;location;lat;lon;timestamp;temperature;humidity
1083;DHT22;530;51.448;7.238;2022-11-12T00:02:09;11.40;99.90
1083;DHT22;530;51.448;7.238;2022-11-12T00:04:35;11.30;99.90
1083;DHT22;530;51.448;7.238;2022-11-12T00:07:00;11.30;99.90
1083;DHT22;530;51.448;7.238;2022-11-12T00:09:26;11.30;99.90
1083;DHT22;530;51.448;7.238;2022-11-12T00:11:52;11.30;99.90
1083;DHT22;530;51.448;7.238;2022-11-12T00:14:17;11.20;99.90
1083;DHT22;530;51.448;7.238;2022-11-12T00:16:43;11.30;99.90
1083;DHT22;530;51.448;7.238;2022-11-12T00:19:08;11.20;99.90
1083;DHT22;530;51.448;7.238;2022-11-12T00:21:34;11.20;99.90
1083;DHT22;530;51.448;7.238;2022-11-12T00:24:00;11.20;99.90
1083;DHT22;530;51.448;7.238;2022-11-12T00:26:26;11.10;99.90
1083;DHT22;530;51.448;7.238;2022-11-12T00:28:51;11.00;99.90
1083;DHT22;530;51.448;7.238;2022-11-12T00:31:17;11.00;99.90
1083;DHT22;530;51.448;7.238;2022-11-12T00:33:43;10.90;99.90
1083;DHT22;530;51.448;7.238;2022-11-12T00:36:10;11.00;99.90
1083;DHT22;530;51.448;7.238;2022-11-12T00:38:36;11.10;99.90
1083;DHT22;530;51.448;7.238;2022-11-12T00:41:01;11.10;99.90
1083;DHT22;530;51.448;7.238;2022-11-12T00:43:27;11.10;99.90
1083;DHT22;530;51.448;7.238;2022-11-12T00:45:53;11.00;99.90
1083;DHT22;530;51.448;7.238;2022-11-12T00:48:18;11.10;99.90
1083;DHT22;530;51.448;7.238;2022-11-12T00:50:44;11.10;99.90
1083;DHT22;530;51.448;7.238;2022-11-12T00:53:11;11.00;99.90
1083;DHT22;530;51.448;7.238;2022-11-12T00:55:36;11.00;99.90
1083;DHT22;530;51.448;7.238;2022-11-12T00:58:02;11.00;99.90
1083;DHT22;530;51.448;7.238;2022-11-12T01:00:27;10.90;99.90
1083;DHT22;530;51.448;7.238;2022-11-12T01:02:54;10.80;99.90
1083;DHT22;530;51.448;7.238;2022-11-12T01:05:20;10.60;99.90
1083;DHT22;530;51.448;7.238;2022-11-12T01:07:46;10.70;99.90
1083;DHT22;530;51.448;7.238;2022-11-12T01:10:13;10.70;99.90
1083;DHT22;530;51.448;7.238;2022-11-12T01:12:39;10.60;99.90
1083;DHT22;530;51.448;7.238;2022-11-12T01:15:05;10.60;99.90
1083;DHT22;530;51.448;7.238;2022-11-12T01:17:31;10.50;99.90
1083;DHT22;530;51.448;7.238;2022-11-12T01:19:57;10.20;99.90
1083;DHT22;530;51.448;7.238;2022-11-12T01:22:23;10.10;99.90
1083;DHT22;530;51.448;7.238;2022-11-12T01:24:48;10.20;99.90
1083;DHT22;530;51.448;7.238;2022-11-12T01:27:14;10.30;99.90
1083;DHT22;530;51.448;7.238;2022-11-12T01:29:40;10.40;99.90
1083;DHT22;530;51.448;7.238;2022-11-12T01:32:06;10.30;99.90
1083;DHT22;530;51.448;7.238;2022-11-12T01:34:32;10.10;99.90
1083;DHT22;530;51.448;7.238;2022-11-12T01:36:58;9.90;99.90
1083;DHT22;530;51.448;7.238;2022-11-12T01:39:23;9.70;99.90
1083;DHT22;530;51.448;7.238;2022-11-12T01:41:49;9.60;99.90
1083;DHT22;530;51.448;7.238;2022-11-12T01:44:21;9.40;99.90
1083;DHT22;530;51.448;7.238;2022-11-12T01:54:44;9.30;99.90
1083;DHT22;530;51.448;7.238;2022-11-12T01:57:14;9.20;99.90
1083;DHT22;530;51.448;7.238;2022-11-12T01:59:44;9.00;99.90
1083;DHT22;530;51.448;7.238;2022-11-12T02:02:12;9.00;99.90
1083;DHT22;530;51.448;7.238;2022-11-12T02:04:38;8.90;99.90
1083;DHT22;530;51.448;7.238;2022-11-12T02:07:05;8.90;99.90
1083;DHT22;530;51.448;7.238;2022-11-12T02:09:32;9.10;99.90
1083;DHT22;530;51.448;7.238;2022-11-12T02:11:59;9.30;99.90
1083;DHT22;530;51.448;7.238;2022-11-12T02:14:25;9.40;99.90
1083;DHT22;530;51.448;7.238;2022-11-12T02:16:52;9.30;99.90
1083;DHT22;530;51.448;7.238;2022-11-12T02:19:17;9.40;99.90
1083;DHT22;530;51.448;7.238;2022-11-12T02:21:43;9.50;99.90
1083;DHT22;530;51.448;7.238;2022-11-12T02:26:44;9.70;99.90
1083;DHT22;530;51.448;7.238;2022-11-12T02:29:10;9.50;99.90
1083;DHT22;530;51.448;7.238;2022-11-12T02:31:36;9.60;99.90
1083;DHT22;530;51.448;7.238;2022-11-12T02:34:02;9.70;99.90
1083;DHT22;530;51.448;7.238;2022-11-12T02:36:28;9.70;99.90
1083;DHT22;530;51.448;7.238;2022-11-12T02:38:54;9.70;99.90
1083;DHT22;530;51.448;7.238;2022-11-12T02:41:20;9.70;99.90
1083;DHT22;530;51.448;7.238;2022-11-12T02:43:46;9.70;99.90
1083;DHT22;530;51.448;7.238;2022-11-12T02:46:12;9.70;99.90
1083;DHT22;530;51.448;7.238;2022-11-12T02:48:37;9.80;99.90
1083;DHT22;530;51.448;7.238;2022-11-12T02:51:04;9.80;99.90
1083;DHT22;530;51.448;7.238;2022-11-12T02:53:29;9.80;99.90
1083;DHT22;530;51.448;7.238;2022-11-12T02:55:57;9.80;99.90
1083;DHT22;530;51.448;7.238;2022-11-12T02:58:23;9.80;99.90
1083;DHT22;530;51.448;7.238;2022-11-12T03:00:50;9.80;99.90
1083;DHT22;530;51.448;7.238;2022-11-12T03:03:16;9.90;99.90
1083;DHT22;530;51.448;7.238;2022-11-12T03:05:42;9.90;99.90
1083;DHT22;530;51.448;7.238;2022-11-12T03:08:08;10.00;99.90
1083;DHT22;530;51.448;7.238;2022-11-12T03:10:36;10.00;99.90
1083;DHT22;530;51.448;7.238;2022-11-12T03:13:03;10.00;99.90
1083;DHT22;530;51.448;7.238;2022-11-12T03:15:29;10.10;99.90
1083;DHT22;530;51.448;7.238;2022-11-12T03:17:59;10.10;99.90
1083;DHT22;530;51.448;7.238;2022-11-12T03:20:25;10.10;99.90
1083;DHT22;530;51.448;7.238;2022-11-12T03:23:05;9.80;99.90
1083;DHT22;530;51.448;7.238;2022-11-12T03:25:32;9.70;99.90
1083;DHT22;530;51.448;7.238;2022-11-12T03:28:06;9.70;99.90
1083;DHT22;530;51.448;7.238;2022-11-12T03:30:35;9.70;99.90
1083;DHT22;530;51.448;7.238;2022-11-12T03:33:01;9.60;99.90
1083;DHT22;530;51.448;7.238;2022-11-12T03:35:27;9.70;99.90
1083;DHT22;530;51.448;7.238;2022-11-12T03:37:53;9.80;99.90
1083;DHT22;530;51.448;7.238;2022-11-12T03:40:19;9.80;99.90
1083;DHT22;530;51.448;7.238;2022-11-12T03:42:46;10.00;99.90
1083;DHT22;530;51.448;7.238;2022-11-12T03:45:13;10.00;99.90
1083;DHT22;530;51.448;7.238;2022-11-12T03:47:47;10.00;99.90
1083;DHT22;530;51.448;7.238;2022-11-12T03:50:14;10.00;99.90
1083;DHT22;530;51.448;7.238;2022-11-12T03:52:47;10.10;99.90
1083;DHT22;530;51.448;7.238;2022-11-12T03:55:15;10.00;99.90
1083;DHT22;530;51.448;7.238;2022-11-12T03:57:41;10.00;99.90
1083;DHT22;530;51.448;7.238;2022-11-12T04:00:08;10.00;99.90
1083;DHT22;530;51.448;7.238;2022-11-12T04:02:35;9.80;99.90
1083;DHT22;530;51.448;7.238;2022-11-12T04:05:01;9.70;99.90
1083;DHT22;530;51.448;7.238;2022-11-12T04:08:12;9.60;99.90
1083;DHT22;530;51.448;7.238;2022-11-12T04:10:52;9.60;99.90
1083;DHT22;530;51.448;7.238;2022-11-12T04:13:18;9.80;99.90
1083;DHT22;530;51.448;7.238;2022-11-12T04:16:07;9.90;99.90
1083;DHT22;530;51.448;7.238;2022-11-12T04:18:54;9.90;99.90
1083;DHT22;530;51.448;7.238;2022-11-12T04:24:30;9.80;99.90
1083;DHT22;530;51.448;7.238;2022-11-12T04:27:22;9.60;99.90
1083;DHT22;530;51.448;7.238;2022-11-12T04:29:50;9.40;99.90
1083;DHT22;530;51.448;7.238;2022-11-12T04:32:37;9.50;99.90
1083;DHT22;530;51.448;7.238;2022-11-12T04:35:04;9.60;99.90
1083;DHT22;530;51.448;7.238;2022-11-12T04:37:31;9.60;99.90
1083;DHT22;530;51.448;7.238;2022-11-12T04:40:16;9.70;99.90
1083;DHT22;530;51.448;7.238;2022-11-12T04:43:02;9.80;99.90
1083;DHT22;530;51.448;7.238;2022-11-12T04:45:48;9.80;99.90
1083;DHT22;530;51.448;7.238;2022-11-12T04:48:15;9.90;99.90
1083;DHT22;530;51.448;7.238;2022-11-12T04:50:41;9.90;99.90
1083;DHT22;530;51.448;7.238;2022-11-12T04:53:09;9.90;99.90
1083;DHT22;530;51.448;7.238;2022-11-12T04:55:34;9.90;99.90
1083;DHT22;530;51.448;7.238;2022-11-12T04:58:00;9.90;99.90
1083;DHT22;530;51.448;7.238;2022-11-12T05:00:26;9.90;99.90
1083;DHT22;530;51.448;7.238;2022-11-12T05:02:51;9.90;99.90
1083;DHT22;530;51.448;7.238;2022-11-12T05:05:17;9.90;99.90
1083;DHT22;530;51.448;7.238;2022-11-12T05:07:43;9.90;99.90
1083;DHT22;530;51.448;7.238;2022-11-12T05:10:09;9.80;99.90
1083;DHT22;530;51.448;7.238;2022-11-12T05:12:35;9.60;99.90
1083;DHT22;530;51.448;7.238;2022-11-12T05:15:01;9.50;99.90
1083;DHT22;530;51.448;7.238;2022-11-12T05:17:27;9.40;99.90
1083;DHT22;530;51.448;7.238;2022-11-12T05:19:52;9.40;99.90
1083;DHT22;530;51.448;7.238;2022-11-12T05:22:18;9.40;99.90
1083;DHT22;530;51.448;7.238;2022-11-12T05:24:44;9.30;99.90
1083;DHT22;530;51.448;7.238;2022-11-12T05:27:18;9.20;99.90
1083;DHT22;530;51.448;7.238;2022-11-12T05:29:44;9.00;99.90
1083;DHT22;530;51.448;7.238;2022-11-12T05:32:12;8.80;99.90
1083;DHT22;530;51.448;7.238;2022-11-12T05:34:38;8.70;99.90
1083;DHT22;530;51.448;7.238;2022-11-12T05:37:05;8.60;99.90
1083;DHT22;530;51.448;7.238;2022-11-12T05:39:30;8.40;99.90
1083;DHT22;530;51.448;7.238;2022-11-12T05:41:56;8.30;99.90
1083;DHT22;530;51.448;7.238;2022-11-12T05:44:22;8.30;99.90
1083;DHT22;530;51.448;7.238;2022-11-12T05:46:48;8.20;99.90
1083;DHT22;530;51.448;7.238;2022-11-12T05:49:14;8.20;99.90
1083;DHT22;530;51.448;7.238;2022-11-12T05:51:40;8.10;99.90
1083;DHT22;530;51.448;7.238;2022-11-12T05:54:06;8.10;99.90
1083;DHT22;530;51.448;7.238;2022-11-12T05:56:32;8.10;99.90
1083;DHT22;530;51.448;7.238;2022-11-12T05:58:58;8.10;99.90
1083;DHT22;530;51.448;7.238;2022-11-12T06:01:23;8.10;99.90
1083;DHT22;530;51.448;7.238;2022-11-12T06:03:49;8.20;99.90
1083;DHT22;530;51.448;7.238;2022-11-12T06:06:15;8.20;99.90
1083;DHT22;530;51.448;7.238;2022-11-12T06:08:40;8.20;99.90
1083;DHT22;530;51.448;7.238;2022-11-12T06:11:06;8.10;99.90
1083;DHT22;530;51.448;7.238;2022-11-12T06:13:32;8.00;99.90
1083;DHT22;530;51.448;7.238;2022-11-12T06:15:57;8.10;99.90
1083;DHT22;530;51.448;7.238;2022-11-12T06:18:23;8.20;99.90
1083;DHT22;530;51.448;7.238;2022-11-12T06:20:49;8.30;99.90
1083;DHT22;530;51.448;7.238;2022-11-12T06:23:35;8.30;99.90
1083;DHT22;530;51.448;7.238;2022-11-12T06:26:01;8.40;99.90
1083;DHT22;530;51.448;7.238;2022-11-12T06:28:28;8.50;99.90
1083;DHT22;530;51.448;7.238;2022-11-12T06:30:53;8.40;99.90
1083;DHT22;530;51.448;7.238;2022-11-12T06:33:20;8.40;99.90
1083;DHT22;530;51.448;7.238;2022-11-12T06:35:45;8.30;99.90
1083;DHT22;530;51.448;7.238;2022-11-12T06:38:11;8.20;99.90
1083;DHT22;530;51.448;7.238;2022-11-12T06:40:37;8.00;99.90
1083;DHT22;530;51.448;7.238;2022-11-12T06:43:02;8.00;99.90
1083;DHT22;530;51.448;7.238;2022-11-12T06:45:28;8.00;99.90
1083;DHT22;530;51.448;7.238;2022-11-12T06:47:57;8.00;99.90
1083;DHT22;530;51.448;7.238;2022-11-12T06:50:23;7.90;99.90
1083;DHT22;530;51.448;7.238;2022-11-12T06:52:49;7.80;99.90
1083;DHT22;530;51.448;7.238;2022-11-12T06:55:15;7.80;99.90
1083;DHT22;530;51.448;7.238;2022-11-12T06:57:40;7.70;99.90
1083;DHT22;530;51.448;7.238;2022-11-12T07:00:06;7.60;99.90
1083;DHT22;530;51.448;7.238;2022-11-12T07:02:34;7.80;99.90
1083;DHT22;530;51.448;7.238;2022-11-12T07:05:00;8.10;99.90
1083;DHT22;530;51.448;7.238;2022-11-12T07:07:27;8.00;99.90
1083;DHT22;530;51.448;7.238;2022-11-12T07:09:53;8.00;99.90
1083;DHT22;530;51.448;7.238;2022-11-12T07:12:19;8.00;99.90
1083;DHT22;530;51.448;7.238;2022-11-12T07:14:44;8.00;99.90
1083;DHT22;530;51.448;7.238;2022-11-12T07:17:11;8.10;99.90
1083;DHT22;530;51.448;7.238;2022-11-12T07:19:36;8.10;99.90
1083;DHT22;530;51.448;7.238;2022-11-12T07:22:02;8.20;99.90
1083;DHT22;530;51.448;7.238;2022-11-12T07:24:28;8.40;99.90
1083;DHT22;530;51.448;7.238;2022-11-12T07:26:54;8.40;99.90
1083;DHT22;530;51.448;7.238;2022-11-12T07:29:19;8.40;99.90
1083;DHT22;530;51.448;7.238;2022-11-12T07:31:45;8.40;99.90
1083;DHT22;530;51.448;7.238;2022-11-12T07:34:11;8.40;99.90
1083;DHT22;530;51.448;7.238;2022-11-12T07:36:36;8.50;99.90
1083;DHT22;530;51.448;7.238;2022-11-12T07:39:02;8.50;99.90
1083;DHT22;530;51.448;7.238;2022-11-12T07:41:28;8.80;99.90
1083;DHT22;530;51.448;7.238;2022-11-12T07:43:53;8.80;99.90
1083;DHT22;530;51.448;7.238;2022-11-12T07:46:25;9.00;99.90
1083;DHT22;530;51.448;7.238;2022-11-12T07:48:51;9.30;99.90
1083;DHT22;530;51.448;7.238;2022-11-12T07:51:19;9.60;99.90
1083;DHT22;530;51.448;7.238;2022-11-12T07:53:46;9.90;99.90
1083;DHT22;530;51.448;7.238;2022-11-12T07:56:16;10.20;99.90
1083;DHT22;530;51.448;7.238;2022-11-12T07:58:43;10.50;99.90
1083;DHT22;530;51.448;7.238;2022-11-12T08:01:12;10.80;99.90
1083;DHT22;530;51.448;7.238;2022-11-12T08:03:41;11.10;99.90
1083;DHT22;530;51.448;7.238;2022-11-12T08:06:07;11.40;99.90
1083;DHT22;530;51.448;7.238;2022-11-12T08:08:32;11.60;99.90
1083;DHT22;530;51.448;7.238;2022-11-12T08:10:58;11.80;99.90
1083;DHT22;530;51.448;7.238;2022-11-12T08:13:24;12.00;99.90
1083;DHT22;530;51.448;7.238;2022-11-12T08:15:50;12.20;99.90
1083;DHT22;530;51.448;7.238;2022-11-12T08:18:17;12.30;99.90
1083;DHT22;530;51.448;7.238;2022-11-12T08:20:43;12.50;99.90
1083;DHT22;530;51.448;7.238;2022-11-12T08:23:09;12.70;99.90
1083;DHT22;530;51.448;7.238;2022-11-12T08:25:35;12.90;99.90
1083;DHT22;530;51.448;7.238;2022-11-12T08:28:01;13.10;99.90
1083;DHT22;530;51.448;7.238;2022-11-12T08:30:28;13.30;99.90
1083;DHT22;530;51.448;7.238;2022-11-12T08:32:58;13.60;99.90
1083;DHT22;530;51.448;7.238;2022-11-12T08:35:25;13.70;99.60
1083;DHT22;530;51.448;7.238;2022-11-12T08:37:58;13.90;99.70
1083;DHT22;530;51.448;7.238;2022-11-12T08:40:24;14.10;99.20
1083;DHT22;530;51.448;7.238;2022-11-12T08:43:04;14.20;98.70
1083;DHT22;530;51.448;7.238;2022-11-12T08:45:35;14.40;98.70
1083;DHT22;530;51.448;7.238;2022-11-12T08:48:03;14.70;98.50
1083;DHT22;530;51.448;7.238;2022-11-12T08:50:29;14.80;98.30
1083;DHT22;530;51.448;7.238;2022-11-12T08:53:02;15.10;98.30
1083;DHT22;530;51.448;7.238;2022-11-12T08:55:29;15.30;97.40
1083;DHT22;530;51.448;7.238;2022-11-12T08:57:55;15.50;96.80
1083;DHT22;530;51.448;7.238;2022-11-12T09:00:24;15.60;96.30
1083;DHT22;530;51.448;7.238;2022-11-12T09:02:49;15.70;95.80
1083;DHT22;530;51.448;7.238;2022-11-12T09:05:15;15.90;95.40
1083;DHT22;530;51.448;7.238;2022-11-12T09:07:40;16.00;95.70
1083;DHT22;530;51.448;7.238;2022-11-12T09:10:06;16.20;95.00
1083;DHT22;530;51.448;7.238;2022-11-12T09:12:32;16.30;94.40
1083;DHT22;530;51.448;7.238;2022-11-12T09:14:58;16.50;94.60
1083;DHT22;530;51.448;7.238;2022-11-12T09:17:24;16.70;94.00
1083;DHT22;530;51.448;7.238;2022-11-12T09:19:49;16.80;93.40
1083;DHT22;530;51.448;7.238;2022-11-12T09:22:15;17.10;92.60
1083;DHT22;530;51.448;7.238;2022-11-12T09:24:41;17.30;92.50
1083;DHT22;530;51.448;7.238;2022-11-12T09:27:07;17.40;92.10
1083;DHT22;530;51.448;7.238;2022-11-12T09:29:32;17.50;91.00
1083;DHT22;530;51.448;7.238;2022-11-12T09:31:58;17.70;91.40
1083;DHT22;530;51.448;7.238;2022-11-12T09:34:24;17.80;90.60
1083;DHT22;530;51.448;7.238;2022-11-12T09:36:49;18.00;90.80
1083;DHT22;530;51.448;7.238;2022-11-12T09:39:16;18.10;90.20
1083;DHT22;530;51.448;7.238;2022-11-12T09:41:41;18.20;90.20
1083;DHT22;530;51.448;7.238;2022-11-12T09:44:14;18.20;88.30
1083;DHT22;530;51.448;7.238;2022-11-12T09:47:00;18.10;87.80
1083;DHT22;530;51.448;7.238;2022-11-12T09:49:42;18.30;88.70
1083;DHT22;530;51.448;7.238;2022-11-12T09:52:13;18.40;87.80
1083;DHT22;530;51.448;7.238;2022-11-12T09:54:41;18.50;87.00
1083;DHT22;530;51.448;7.238;2022-11-12T09:57:11;18.60;89.90
1083;DHT22;530;51.448;7.238;2022-11-12T09:59:40;18.60;90.60
1083;DHT22;530;51.448;7.238;2022-11-12T10:04:53;18.50;89.30
1083;DHT22;530;51.448;7.238;2022-11-12T10:07:59;18.50;89.20
1083;DHT22;530;51.448;7.238;2022-11-12T10:13:04;18.70;89.30
1083;DHT22;530;51.448;7.238;2022-11-12T10:18:35;18.80;90.10
1083;DHT22;530;51.448;7.238;2022-11-12T10:23:42;18.50;88.70
1083;DHT22;530;51.448;7.238;2022-11-12T10:26:20;18.30;88.10
1083;DHT22;530;51.448;7.238;2022-11-12T10:28:51;18.10;89.90
1083;DHT22;530;51.448;7.238;2022-11-12T10:31:20;18.00;91.20
1083;DHT22;530;51.448;7.238;2022-11-12T10:33:46;17.90;90.50
1083;DHT22;530;51.448;7.238;2022-11-12T10:38:50;17.80;91.10
1083;DHT22;530;51.448;7.238;2022-11-12T10:41:22;17.80;91.80
1083;DHT22;530;51.448;7.238;2022-11-12T10:44:12;17.70;91.30
1083;DHT22;530;51.448;7.238;2022-11-12T10:46:39;17.60;93.10
1083;DHT22;530;51.448;7.238;2022-11-12T10:49:20;17.60;94.20
1083;DHT22;530;51.448;7.238;2022-11-12T10:51:58;17.50;95.00
1083;DHT22;530;51.448;7.238;2022-11-12T10:54:34;17.40;95.30
1083;DHT22;530;51.448;7.238;2022-11-12T10:57:20;17.30;95.80
1083;DHT22;530;51.448;7.238;2022-11-12T10:59:46;17.20;96.50
1083;DHT22;530;51.448;7.238;2022-11-12T11:02:16;17.20;96.30
1083;DHT22;530;51.448;7.238;2022-11-12T11:04:42;17.20;96.10
1083;DHT22;530;51.448;7.238;2022-11-12T11:10:03;17.10;96.30
1083;DHT22;530;51.448;7.238;2022-11-12T11:12:31;17.00;96.80
1083;DHT22;530;51.448;7.238;2022-11-12T11:15:18;17.00;97.40
1083;DHT22;530;51.448;7.238;2022-11-12T11:17:44;17.00;97.40
1083;DHT22;530;51.448;7.238;2022-11-12T11:20:41;17.00;97.50
1083;DHT22;530;51.448;7.238;2022-11-12T11:26:41;17.00;97.70
1083;DHT22;530;51.448;7.238;2022-11-12T11:35:20;17.10;97.60
1083;DHT22;530;51.448;7.238;2022-11-12T11:37:58;17.30;97.50
1083;DHT22;530;51.448;7.238;2022-11-12T11:51:04;17.80;95.90
1083;DHT22;530;51.448;7.238;2022-11-12T11:56:28;17.90;97.00
1083;DHT22;530;51.448;7.238;2022-11-12T12:05:49;18.00;96.60
1083;DHT22;530;51.448;7.238;2022-11-12T12:21:33;17.90;90.10
1083;DHT22;530;51.448;7.238;2022-11-12T12:24:11;17.90;89.10
1083;DHT22;530;51.448;7.238;2022-11-12T12:26:53;17.80;89.40
1083;DHT22;530;51.448;7.238;2022-11-12T12:32:28;17.70;90.00
1083;DHT22;530;51.448;7.238;2022-11-12T12:40:34;17.60;89.20
1083;DHT22;530;51.448;7.238;2022-11-12T12:43:18;17.60;89.30
1083;DHT22;530;51.448;7.238;2022-11-12T12:45:47;17.50;90.10
1083;DHT22;530;51.448;7.238;2022-11-12T12:48:19;17.60;90.40
1083;DHT22;530;51.448;7.238;2022-11-12T12:50:47;17.60;89.50
1083;DHT22;530;51.448;7.238;2022-11-12T12:53:15;17.50;89.10
1083;DHT22;530;51.448;7.238;2022-11-12T12:55:45;17.40;89.60
1083;DHT22;530;51.448;7.238;2022-11-12T13:04:14;17.40;90.90
1083;DHT22;530;51.448;7.238;2022-11-12T13:06:51;17.40;90.10
1083;DHT22;530;51.448;7.238;2022-11-12T13:30:08;17.30;88.60
1083;DHT22;530;51.448;7.238;2022-11-12T13:32:35;17.30;89.30
1083;DHT22;530;51.448;7.238;2022-11-12T13:40:36;17.30;88.70
1083;DHT22;530;51.448;7.238;2022-11-12T13:43:10;17.30;90.10
1083;DHT22;530;51.448;7.238;2022-11-12T13:49:04;17.40;89.00
1083;DHT22;530;51.448;7.238;2022-11-12T13:54:32;17.50;88.80
1083;DHT22;530;51.448;7.238;2022-11-12T13:59:48;17.50;89.30
1083;DHT22;530;51.448;7.238;2022-11-12T14:02:19;17.60;89.40
1083;DHT22;530;51.448;7.238;2022-11-12T14:04:46;17.50;89.20
1083;DHT22;530;51.448;7.238;2022-11-12T14:21:17;17.30;90.60
1083;DHT22;530;51.448;7.238;2022-11-12T14:23:45;17.30;90.60
1083;DHT22;530;51.448;7.238;2022-11-12T14:26:13;17.30;90.00
1083;DHT22;530;51.448;7.238;2022-11-12T14:28:39;17.20;90.20
1083;DHT22;530;51.448;7.238;2022-11-12T14:31:12;17.20;90.50
1083;DHT22;530;51.448;7.238;2022-11-12T14:33:39;17.20;90.10
1083;DHT22;530;51.448;7.238;2022-11-12T14:36:09;17.20;89.80
1083;DHT22;530;51.448;7.238;2022-11-12T14:38:39;17.10;90.10
1083;DHT22;530;51.448;7.238;2022-11-12T14:41:24;17.00;90.60
1083;DHT22;530;51.448;7.238;2022-11-12T14:43:52;17.00;90.60
1083;DHT22;530;51.448;7.238;2022-11-12T14:46:48;17.00;91.00
1083;DHT22;530;51.448;7.238;2022-11-12T14:52:02;16.80;91.70
1083;DHT22;530;51.448;7.238;2022-11-12T14:54:33;16.80;91.40
1083;DHT22;530;51.448;7.238;2022-11-12T14:57:02;16.80;91.70
1083;DHT22;530;51.448;7.238;2022-11-12T14:59:30;16.70;92.10
1083;DHT22;530;51.448;7.238;2022-11-12T15:02:29;16.70;93.10
1083;DHT22;530;51.448;7.238;2022-11-12T15:07:58;16.50;94.10
1083;DHT22;530;51.448;7.238;2022-11-12T15:13:06;16.40;96.30
1083;DHT22;530;51.448;7.238;2022-11-12T15:15:33;16.30;97.20
1083;DHT22;530;51.448;7.238;2022-11-12T15:18:20;16.20;98.10
1083;DHT22;530;51.448;7.238;2022-11-12T15:23:51;16.00;99.90
1083;DHT22;530;51.448;7.238;2022-11-12T15:26:31;15.80;99.90
1083;DHT22;530;51.448;7.238;2022-11-12T15:28:59;15.70;99.90
1083;DHT22;530;51.448;7.238;2022-11-12T15:31:26;15.40;99.90
1083;DHT22;530;51.448;7.238;2022-11-12T15:33:51;15.30;99.90
1083;DHT22;530;51.448;7.238;2022-11-12T15:36:19;15.20;99.90
1083;DHT22;530;51.448;7.238;2022-11-12T15:38:51;15.10;99.90
1083;DHT22;530;51.448;7.238;2022-11-12T15:41:21;14.90;99.90
1083;DHT22;530;51.448;7.238;2022-11-12T15:43:47;14.90;99.90
1083;DHT22;530;51.448;7.238;2022-11-12T15:46:13;14.70;99.90
1083;DHT22;530;51.448;7.238;2022-11-12T15:48:42;14.60;99.90
1083;DHT22;530;51.448;7.238;2022-11-12T15:51:09;14.50;99.90
1083;DHT22;530;51.448;7.238;2022-11-12T15:53:35;14.50;99.90
1083;DHT22;530;51.448;7.238;2022-11-12T15:56:01;14.50;99.90
1083;DHT22;530;51.448;7.238;2022-11-12T15:58:33;14.40;99.90
1083;DHT22;530;51.448;7.238;2022-11-12T16:00:59;14.30;99.90
1083;DHT22;530;51.448;7.238;2022-11-12T16:03:25;14.20;99.90
1083;DHT22;530;51.448;7.238;2022-11-12T16:05:50;14.20;99.90
1083;DHT22;530;51.448;7.238;2022-11-12T16:08:18;14.10;99.90
1083;DHT22;530;51.448;7.238;2022-11-12T16:10:45;14.10;99.90
1083;DHT22;530;51.448;7.238;2022-11-12T16:15:42;14.10;99.90
1083;DHT22;530;51.448;7.238;2022-11-12T16:18:11;14.00;99.90
1083;DHT22;530;51.448;7.238;2022-11-12T16:20:37;13.90;99.90
1083;DHT22;530;51.448;7.238;2022-11-12T16:23:03;13.80;99.90
1083;DHT22;530;51.448;7.238;2022-11-12T16:25:31;13.70;99.90
1083;DHT22;530;51.448;7.238;2022-11-12T16:27:59;13.60;99.90
1083;DHT22;530;51.448;7.238;2022-11-12T16:30:28;13.50;99.90
1083;DHT22;530;51.448;7.238;2022-11-12T16:33:00;13.50;99.90
1083;DHT22;530;51.448;7.238;2022-11-12T16:35:27;13.40;99.90
1083;DHT22;530;51.448;7.238;2022-11-12T16:37:54;13.30;99.90
1083;DHT22;530;51.448;7.238;2022-11-12T16:40:22;13.20;99.90
1083;DHT22;530;51.448;7.238;2022-11-12T16:42:48;13.20;99.90
1083;DHT22;530;51.448;7.238;2022-11-12T16:45:16;13.10;99.90
1083;DHT22;530;51.448;7.238;2022-11-12T16:47:53;13.00;99.90
1083;DHT22;530;51.448;7.238;2022-11-12T16:50:21;12.90;99.90
1083;DHT22;530;51.448;7.238;2022-11-12T16:52:48;12.80;99.90
1083;DHT22;530;51.448;7.238;2022-11-12T16:55:14;12.70;99.90
1083;DHT22;530;51.448;7.238;2022-11-12T16:57:40;12.60;99.90
1083;DHT22;530;51.448;7.238;2022-11-12T17:00:15;12.60;99.90
1083;DHT22;530;51.448;7.238;2022-11-12T17:02:41;12.50;99.90
1083;DHT22;530;51.448;7.238;2022-11-12T17:05:13;12.40;99.90
1083;DHT22;530;51.448;7.238;2022-11-12T17:07:39;12.40;99.90
1083;DHT22;530;51.448;7.238;2022-11-12T17:10:05;12.30;99.90
1083;DHT22;530;51.448;7.238;2022-11-12T17:12:30;12.30;99.90
1083;DHT22;530;51.448;7.238;2022-11-12T17:14:56;12.30;99.90
1083;DHT22;530;51.448;7.238;2022-11-12T17:17:22;12.30;99.90
1083;DHT22;530;51.448;7.238;2022-11-12T17:19:47;12.20;99.90
1083;DHT22;530;51.448;7.238;2022-11-12T17:22:13;12.30;99.90
1083;DHT22;530;51.448;7.238;2022-11-12T17:24:39;12.50;99.90
1083;DHT22;530;51.448;7.238;2022-11-12T17:27:04;12.40;99.90
1083;DHT22;530;51.448;7.238;2022-11-12T17:29:30;12.40;99.90
1083;DHT22;530;51.448;7.238;2022-11-12T17:31:56;12.30;99.90
1083;DHT22;530;51.448;7.238;2022-11-12T17:34:21;12.40;99.90
1083;DHT22;530;51.448;7.238;2022-11-12T17:36:47;12.30;99.90
1083;DHT22;530;51.448;7.238;2022-11-12T17:39:14;12.40;99.90
1083;DHT22;530;51.448;7.238;2022-11-12T17:41:40;12.40;99.90
1083;DHT22;530;51.448;7.238;2022-11-12T17:44:05;12.50;99.90
1083;DHT22;530;51.448;7.238;2022-11-12T17:46:31;12.50;99.90
1083;DHT22;530;51.448;7.238;2022-11-12T17:48:57;12.50;99.90
1083;DHT22;530;51.448;7.238;2022-11-12T17:51:26;12.60;99.90
1083;DHT22;530;51.448;7.238;2022-11-12T17:53:52;12.70;99.90
1083;DHT22;530;51.448;7.238;2022-11-12T17:56:20;12.70;99.90
1083;DHT22;530;51.448;7.238;2022-11-12T17:58:48;12.80;99.90
1083;DHT22;530;51.448;7.238;2022-11-12T18:03:43;13.00;99.90
1083;DHT22;530;51.448;7.238;2022-11-12T18:06:11;13.00;99.90
1083;DHT22;530;51.448;7.238;2022-11-12T18:08:38;13.00;99.90
1083;DHT22;530;51.448;7.238;2022-11-12T18:11:05;13.00;99.90
1083;DHT22;530;51.448;7.238;2022-11-12T18:13:30;13.00;99.90
1083;DHT22;530;51.448;7.238;2022-11-12T18:15:56;13.10;99.90
1083;DHT22;530;51.448;7.238;2022-11-12T18:18:22;13.00;99.90
1083;DHT22;530;51.448;7.238;2022-11-12T18:20:48;13.00;99.90
1083;DHT22;530;51.448;7.238;2022-11-12T18:23:13;13.10;99.90
1083;DHT22;530;51.448;7.238;2022-11-12T18:25:39;13.10;99.90
1083;DHT22;530;51.448;7.238;2022-11-12T18:28:06;13.10;99.90
1083;DHT22;530;51.448;7.238;2022-11-12T18:30:33;13.10;99.90
1083;DHT22;530;51.448;7.238;2022-11-12T18:32:59;13.10;99.90
1083;DHT22;530;51.448;7.238;2022-11-12T18:35:25;13.20;99.90
1083;DHT22;530;51.448;7.238;2022-11-12T18:37:51;13.30;99.90
1083;DHT22;530;51.448;7.238;2022-11-12T18:40:16;13.40;99.90
1083;DHT22;530;51.448;7.238;2022-11-12T18:42:43;13.40;99.90
1083;DHT22;530;51.448;7.238;2022-11-12T18:45:09;13.50;99.90
1083;DHT22;530;51.448;7.238;2022-11-12T18:47:34;13.50;99.90
1083;DHT22;530;51.448;7.238;2022-11-12T18:50:00;13.60;99.90
1083;DHT22;530;51.448;7.238;2022-11-12T18:52:26;13.50;99.90
1083;DHT22;530;51.448;7.238;2022-11-12T18:54:52;13.60;99.90
1083;DHT22;530;51.448;7.238;2022-11-12T18:57:17;13.50;99.90
1083;DHT22;530;51.448;7.238;2022-11-12T18:59:43;13.60;99.90
1083;DHT22;530;51.448;7.238;2022-11-12T19:02:10;13.60;99.90
1083;DHT22;530;51.448;7.238;2022-11-12T19:04:36;13.60;99.90
1083;DHT22;530;51.448;7.238;2022-11-12T19:07:02;13.50;99.90